createdAt,value
2022-12-31T00:05:05.813Z,13.50
2022-12-31T00:43:49.978Z,9.10
2022-12-31T01:05:36.984Z,8.60
2022-12-31T01:27:22.699Z,7.70
2022-12-31T01:49:23.639Z,6.90
2022-12-31T02:11:25.231Z,6.30
2022-12-31T02:43:49.676Z,3.90
2022-12-31T03:05:39.326Z,3.50
2022-12-31T03:27:25.032Z,3.70
2022-12-31T03:49:10.707Z,3.30
2022-12-31T04:10:56.541Z,3.30
2022-12-31T04:32:42.287Z,3.20
2022-12-31T04:54:28.007Z,3.20
2022-12-31T05:16:13.765Z,3.30
2022-12-31T05:43:43.089Z,2.60
2022-12-31T06:05:28.715Z,2.30
2022-12-31T06:27:14.343Z,2.60
2022-12-31T06:49:00.410Z,2.40
2022-12-31T07:10:52.009Z,2.50
2022-12-31T07:32:52.183Z,2.60
2022-12-31T07:54:37.940Z,2.60
2022-12-31T08:16:24.707Z,2.70
2022-12-31T08:38:18.589Z,2.00
2022-12-31T09:00:12.192Z,2.40
2022-12-31T09:21:59.046Z,3.50
2022-12-31T09:44:14.550Z,1.80
2022-12-31T10:06:21.278Z,1.90
2022-12-31T10:28:26.686Z,2.00
2022-12-31T10:50:50.306Z,2.20
2022-12-31T11:13:06.218Z,2.00
2022-12-31T11:35:19.164Z,2.90
2022-12-31T11:57:15.345Z,1.90
2022-12-31T12:19:09.363Z,2.00
2022-12-31T12:41:01.323Z,2.20
2022-12-31T13:03:21.409Z,1.90
2022-12-31T13:25:25.310Z,2.50
2022-12-31T13:47:16.921Z,2.00
2022-12-31T14:09:02.723Z,2.00
2022-12-31T14:44:15.697Z,3.30
2022-12-31T15:06:08.998Z,2.60
2022-12-31T15:27:52.620Z,3.10
2022-12-31T15:49:42.647Z,2.70
2022-12-31T16:11:29.758Z,3.20
2022-12-31T16:33:14.813Z,3.70
2022-12-31T16:54:58.750Z,3.40
2022-12-31T17:16:59.568Z,3.20
2022-12-31T17:43:44.739Z,3.90
2022-12-31T18:05:30.543Z,3.40
2022-12-31T18:27:19.561Z,3.50
2022-12-31T18:49:05.542Z,3.30
2022-12-31T19:10:53.721Z,3.50
2022-12-31T19:32:39.407Z,3.10
2022-12-31T19:54:25.205Z,3.00
2022-12-31T20:16:13.388Z,2.90
2022-12-31T20:37:59.161Z,5.70
2022-12-31T20:59:44.950Z,3.00
2022-12-31T21:21:30.773Z,2.90
2022-12-31T21:43:17.289Z,2.70
2022-12-31T22:05:05.687Z,4.50
2022-12-31T22:26:56.849Z,4.40
2022-12-31T22:48:43.410Z,5.10
2022-12-31T23:10:46.609Z,8.00
2022-12-31T23:32:32.293Z,17.60
2022-12-31T23:54:18.111Z,10.70
